createdAt,value
2023-01-23T00:01:50.098Z,39.80
2023-01-23T00:04:23.203Z,36.80
2023-01-23T00:06:56.148Z,41.90
2023-01-23T00:09:29.391Z,47.70
2023-01-23T00:12:02.399Z,42.10
2023-01-23T00:14:35.477Z,48.10
2023-01-23T00:17:08.487Z,35.80
2023-01-23T00:19:41.760Z,54.30
2023-01-23T00:22:16.023Z,46.10
2023-01-23T00:24:49.012Z,44.50
2023-01-23T00:27:22.253Z,40.30
2023-01-23T00:29:56.870Z,51.60
2023-01-23T00:32:30.616Z,38.50
2023-01-23T00:35:03.698Z,42.70
2023-01-23T00:37:36.706Z,49.70
2023-01-23T00:40:13.289Z,55.20
2023-01-23T00:42:46.254Z,51.50
2023-01-23T00:45:19.715Z,40.50
2023-01-23T00:47:52.683Z,45.20
2023-01-23T00:50:25.657Z,49.10
2023-01-23T00:52:58.762Z,44.70
2023-01-23T00:55:31.867Z,40.50
2023-01-23T00:58:06.294Z,53.00
2023-01-23T01:00:39.918Z,42.50
2023-01-23T01:03:13.358Z,52.80
2023-01-23T01:05:48.327Z,47.30
2023-01-23T01:08:21.724Z,48.50
2023-01-23T01:10:54.866Z,34.70
2023-01-23T01:13:28.237Z,34.90
2023-01-23T01:16:02.278Z,47.60
2023-01-23T01:18:35.821Z,42.70
2023-01-23T01:21:13.665Z,47.00
2023-01-23T01:23:48.170Z,46.40
2023-01-23T01:26:23.153Z,42.40
2023-01-23T01:28:56.842Z,57.10
2023-01-23T01:31:29.978Z,62.70
2023-01-23T01:34:03.052Z,64.80
2023-01-23T01:36:36.296Z,67.10
2023-01-23T01:39:09.312Z,49.90
2023-01-23T01:41:42.389Z,54.50
2023-01-23T01:44:19.798Z,69.80
2023-01-23T01:46:53.456Z,62.10
2023-01-23T01:49:31.337Z,44.80
2023-01-23T01:52:08.768Z,61.90
2023-01-23T01:54:47.696Z,43.70
2023-01-23T01:57:26.839Z,54.00
2023-01-23T02:00:07.408Z,49.00
2023-01-23T02:02:54.763Z,52.20
2023-01-23T02:05:32.236Z,53.70
2023-01-23T02:08:14.894Z,56.60
2023-01-23T02:10:49.950Z,43.20
2023-01-23T02:13:34.068Z,52.70
2023-01-23T02:16:11.996Z,60.10
2023-01-23T02:18:49.406Z,54.70
2023-01-23T02:21:29.173Z,45.20
2023-01-23T02:24:19.901Z,45.20
2023-01-23T02:29:24.244Z,46.70
2023-01-23T02:31:59.930Z,57.40
2023-01-23T02:34:32.997Z,44.40
2023-01-23T02:37:07.863Z,39.70
2023-01-23T02:39:41.100Z,59.70
2023-01-23T02:42:15.457Z,59.40
2023-01-23T02:44:54.079Z,53.20
2023-01-23T03:20:18.337Z,80.50
2023-01-23T03:22:48.692Z,71.00
2023-01-23T03:25:18.996Z,67.20
2023-01-23T03:27:50.350Z,57.70
2023-01-23T03:32:51.911Z,85.00
2023-01-23T03:35:22.492Z,61.40
2023-01-23T03:37:54.816Z,67.90
2023-01-23T03:40:45.007Z,76.60
2023-01-23T03:43:17.410Z,82.50
2023-01-23T03:45:51.148Z,79.60
2023-01-23T03:48:21.304Z,80.80
2023-01-23T03:50:51.500Z,69.80
2023-01-23T03:53:22.833Z,54.40
2023-01-23T03:55:52.619Z,70.90
2023-01-23T03:58:22.509Z,70.50
2023-01-23T04:00:52.481Z,58.50
2023-01-23T04:03:23.008Z,75.30
2023-01-23T04:05:57.545Z,60.80
2023-01-23T04:08:29.092Z,72.60
2023-01-23T04:11:09.429Z,68.10
2023-01-23T04:13:39.713Z,67.00
2023-01-23T04:16:09.929Z,53.50
2023-01-23T04:18:39.788Z,82.80
2023-01-23T04:21:09.769Z,72.80
2023-01-23T04:23:39.697Z,66.30
2023-01-23T04:26:09.331Z,62.00
2023-01-23T04:28:39.086Z,80.60
2023-01-23T04:31:09.175Z,54.30
2023-01-23T04:36:10.506Z,57.40
2023-01-23T04:38:40.437Z,54.00
2023-01-23T04:41:31.984Z,54.40
2023-01-23T04:44:22.841Z,85.40
2023-01-23T04:47:13.076Z,69.10
2023-01-23T04:49:43.102Z,62.40
2023-01-23T04:52:12.960Z,52.20
2023-01-23T04:54:46.635Z,57.00
2023-01-23T04:57:16.482Z,80.40
2023-01-23T04:59:46.551Z,51.50
2023-01-23T05:02:16.413Z,63.40
2023-01-23T05:04:46.478Z,56.40
2023-01-23T05:07:16.641Z,56.10
2023-01-23T05:09:54.576Z,66.30
2023-01-23T05:12:24.436Z,42.80
2023-01-23T05:14:54.123Z,55.30
2023-01-23T05:17:24.026Z,53.00
2023-01-23T05:19:55.799Z,63.10
2023-01-23T05:22:25.656Z,56.90
2023-01-23T05:24:55.616Z,67.50
2023-01-23T05:27:27.468Z,60.00
2023-01-23T05:29:57.108Z,72.60
2023-01-23T05:32:28.678Z,69.80
2023-01-23T05:35:19.058Z,74.80
2023-01-23T05:37:51.719Z,57.30
2023-01-23T05:40:24.791Z,47.30
2023-01-23T05:43:15.623Z,52.80
2023-01-23T05:46:10.883Z,69.50
2023-01-23T05:48:52.888Z,60.40
2023-01-23T05:51:23.525Z,61.10
2023-01-23T05:53:53.507Z,50.60
2023-01-23T05:56:23.220Z,64.90
2023-01-23T05:59:11.681Z,56.60
2023-01-23T06:02:07.023Z,70.90
2023-01-23T06:04:42.968Z,55.30
2023-01-23T06:07:41.975Z,62.40
2023-01-23T06:10:12.631Z,64.50
2023-01-23T06:12:42.313Z,47.90
2023-01-23T06:15:13.048Z,51.10
2023-01-23T06:17:42.791Z,63.10
2023-01-23T06:20:14.807Z,54.60
2023-01-23T06:22:46.707Z,49.40
2023-01-23T06:25:17.895Z,43.60
2023-01-23T06:27:47.823Z,57.90
2023-01-23T06:30:18.793Z,48.90
2023-01-23T06:32:49.200Z,41.20
2023-01-23T06:35:22.093Z,54.40
2023-01-23T06:40:22.722Z,37.00
2023-01-23T06:45:31.567Z,50.20
2023-01-23T06:48:01.293Z,56.40
2023-01-23T06:50:30.987Z,46.70
2023-01-23T06:53:00.831Z,52.70
2023-01-23T06:55:30.600Z,43.60
2023-01-23T06:58:01.678Z,58.10
2023-01-23T07:00:33.830Z,46.10
2023-01-23T07:03:04.079Z,55.40
2023-01-23T07:05:38.976Z,50.00
2023-01-23T07:08:08.995Z,56.00
2023-01-23T07:10:39.531Z,56.70
2023-01-23T07:13:11.339Z,55.40
2023-01-23T07:15:41.307Z,39.40
2023-01-23T07:18:11.558Z,45.40
2023-01-23T07:20:43.604Z,51.50
2023-01-23T07:23:13.540Z,51.00
2023-01-23T07:25:43.961Z,54.10
2023-01-23T07:30:42.462Z,52.00
2023-01-23T07:33:13.964Z,56.30
2023-01-23T07:35:43.664Z,46.50
2023-01-23T07:38:13.386Z,46.80
2023-01-23T07:40:44.791Z,54.10
2023-01-23T07:43:14.411Z,46.20
2023-01-23T07:45:44.095Z,61.70
2023-01-23T07:48:14.036Z,54.80
2023-01-23T07:50:43.895Z,44.70
2023-01-23T07:53:13.524Z,48.40
2023-01-23T07:55:43.225Z,52.20
2023-01-23T07:58:13.103Z,47.50
2023-01-23T08:00:42.744Z,49.20
2023-01-23T08:03:12.668Z,62.60
2023-01-23T08:05:43.877Z,54.80
2023-01-23T08:08:14.188Z,54.50
2023-01-23T08:10:43.968Z,45.70
2023-01-23T08:13:13.787Z,68.70
2023-01-23T08:15:43.530Z,51.20
2023-01-23T08:18:13.346Z,45.40
2023-01-23T08:20:43.055Z,59.60
2023-01-23T08:23:12.793Z,57.70
2023-01-23T08:25:42.597Z,53.30
2023-01-23T08:28:12.238Z,61.00
2023-01-23T08:30:41.920Z,53.20
2023-01-23T08:33:11.548Z,48.20
2023-01-23T08:35:47.948Z,57.20
2023-01-23T08:38:18.685Z,47.10
2023-01-23T08:40:49.635Z,44.10
2023-01-23T08:43:20.562Z,47.00
2023-01-23T08:45:52.642Z,48.50
2023-01-23T08:48:23.744Z,39.70
2023-01-23T08:51:00.550Z,50.60
2023-01-23T08:53:30.626Z,42.20
2023-01-23T08:56:05.129Z,47.20
2023-01-23T08:58:34.953Z,49.70
2023-01-23T09:01:05.160Z,47.70
2023-01-23T09:03:34.921Z,53.60
2023-01-23T09:06:05.316Z,50.30
2023-01-23T09:08:36.216Z,51.50
2023-01-23T09:11:08.628Z,51.10
2023-01-23T09:13:39.433Z,40.20
2023-01-23T09:18:39.167Z,47.30
2023-01-23T09:21:11.549Z,50.00
2023-01-23T09:23:41.253Z,49.90
2023-01-23T09:26:13.582Z,41.60
2023-01-23T09:28:43.693Z,48.30
2023-01-23T09:31:14.637Z,43.90
2023-01-23T09:33:45.379Z,47.90
2023-01-23T09:36:15.056Z,45.20
2023-01-23T09:38:44.674Z,41.30
2023-01-23T09:41:19.496Z,50.50
2023-01-23T09:43:57.905Z,47.80
2023-01-23T09:46:32.815Z,60.60
2023-01-23T09:49:11.512Z,43.80
2023-01-23T09:51:52.691Z,49.90
2023-01-23T09:54:37.612Z,56.30
2023-01-23T09:57:15.032Z,46.50
2023-01-23T09:59:59.953Z,61.90
2023-01-23T10:02:30.861Z,55.00
2023-01-23T10:05:02.714Z,64.00
2023-01-23T10:10:58.964Z,69.90
2023-01-23T10:13:48.170Z,46.90
2023-01-23T10:16:49.508Z,48.70
2023-01-23T10:19:51.034Z,56.10
2023-01-23T10:22:47.458Z,60.20
2023-01-23T10:25:21.589Z,64.20
2023-01-23T10:27:53.670Z,59.00
2023-01-23T10:30:28.783Z,63.00
2023-01-23T10:33:02.594Z,55.20
2023-01-23T10:35:40.164Z,47.00
2023-01-23T10:38:26.138Z,60.20
2023-01-23T10:41:14.290Z,64.60
2023-01-23T10:43:46.138Z,61.70
2023-01-23T10:46:18.710Z,55.80
2023-01-23T10:48:50.447Z,61.40
2023-01-23T10:51:48.093Z,54.50
2023-01-23T10:54:36.614Z,70.10
2023-01-23T10:57:24.380Z,64.80
2023-01-23T11:00:01.031Z,61.60
2023-01-23T11:02:33.322Z,45.70
2023-01-23T11:05:13.448Z,51.80
2023-01-23T11:07:54.891Z,64.80
2023-01-23T11:10:25.184Z,57.60
2023-01-23T11:12:56.153Z,60.30
2023-01-23T11:15:29.178Z,48.50
2023-01-23T11:18:00.630Z,66.80
2023-01-23T11:20:34.941Z,52.50
2023-01-23T11:23:15.632Z,63.30
2023-01-23T11:25:47.104Z,64.10
2023-01-23T11:28:26.471Z,53.40
2023-01-23T11:31:13.899Z,55.10
2023-01-23T11:33:54.764Z,46.80
2023-01-23T11:36:41.096Z,56.90
2023-01-23T11:39:22.439Z,56.90
2023-01-23T11:41:52.900Z,55.00
2023-01-23T11:47:13.332Z,51.30
2023-01-23T11:50:06.025Z,60.50
2023-01-23T11:52:50.378Z,55.50
2023-01-23T11:56:17.953Z,66.50
2023-01-23T11:59:21.013Z,58.00
2023-01-23T12:02:08.454Z,57.40
2023-01-23T12:05:00.852Z,62.70
2023-01-23T12:07:38.579Z,65.30
2023-01-23T12:10:24.008Z,61.80
2023-01-23T12:13:12.677Z,50.40
2023-01-23T12:15:57.985Z,48.10
2023-01-23T12:18:40.450Z,48.80
2023-01-23T12:21:18.891Z,57.30
2023-01-23T12:24:14.335Z,58.50
2023-01-23T12:27:00.242Z,67.40
2023-01-23T12:30:00.353Z,71.40
2023-01-23T12:32:57.339Z,55.70
2023-01-23T12:35:47.556Z,54.90
2023-01-23T12:38:31.946Z,63.00
2023-01-23T12:41:15.171Z,52.80
2023-01-23T12:43:54.257Z,52.20
2023-01-23T12:46:34.147Z,65.60
2023-01-23T12:49:22.077Z,67.60
2023-01-23T12:51:57.814Z,54.30
2023-01-23T12:54:37.830Z,56.00
2023-01-23T12:57:10.917Z,52.20
2023-01-23T12:59:58.928Z,54.80
2023-01-23T13:02:40.520Z,56.00
2023-01-23T13:05:19.768Z,55.90
2023-01-23T13:07:56.216Z,50.60
2023-01-23T13:11:18.833Z,56.20
2023-01-23T13:13:48.901Z,59.70
2023-01-23T13:16:20.391Z,58.20
2023-01-23T13:19:16.872Z,55.90
2023-01-23T13:22:26.565Z,49.20
2023-01-23T13:25:12.248Z,57.40
2023-01-23T13:27:48.942Z,66.20
2023-01-23T13:30:43.246Z,59.30
2023-01-23T13:33:53.845Z,53.60
2023-01-23T13:36:34.879Z,55.00
2023-01-23T13:39:27.147Z,55.20
2023-01-23T13:42:35.379Z,53.30
2023-01-23T13:45:35.581Z,66.80
2023-01-23T14:20:42.162Z,64.50
2023-01-23T14:23:28.829Z,52.90
2023-01-23T14:25:59.270Z,56.70
2023-01-23T14:28:28.970Z,68.70
2023-01-23T14:31:02.389Z,57.90
2023-01-23T14:33:44.794Z,80.20
2023-01-23T14:36:18.711Z,64.40
2023-01-23T14:38:50.700Z,65.00
2023-01-23T14:41:27.974Z,53.10
2023-01-23T14:44:02.805Z,60.50
2023-01-23T14:46:39.645Z,67.90
2023-01-23T14:49:11.084Z,68.90
2023-01-23T14:51:53.560Z,74.80
2023-01-23T14:54:23.746Z,62.60
2023-01-23T14:56:56.065Z,64.00
2023-01-23T14:59:31.330Z,86.20
2023-01-23T15:02:13.135Z,75.50
2023-01-23T15:05:22.525Z,70.40
2023-01-23T15:07:56.751Z,74.30
2023-01-23T15:10:28.828Z,69.80
2023-01-23T15:13:02.843Z,61.70
2023-01-23T15:15:34.776Z,96.70
2023-01-23T15:18:16.665Z,81.00
2023-01-23T15:20:54.268Z,79.90
2023-01-23T15:23:30.833Z,77.80
2023-01-23T15:26:30.344Z,74.60
2023-01-23T15:29:03.287Z,87.20
2023-01-23T15:31:35.852Z,89.90
2023-01-23T15:34:26.856Z,86.10
2023-01-23T15:37:04.876Z,82.50
2023-01-23T15:39:40.499Z,98.20
2023-01-23T15:42:29.881Z,98.30
2023-01-23T15:45:01.043Z,77.90
2023-01-23T15:47:32.634Z,82.60
2023-01-23T15:50:02.600Z,68.70
2023-01-23T15:52:47.431Z,99.20
2023-01-23T15:55:18.303Z,87.90
2023-01-23T15:57:48.092Z,92.50
2023-01-23T16:00:20.509Z,107.90
2023-01-23T16:02:56.854Z,98.40
2023-01-23T16:05:30.516Z,78.50
2023-01-23T16:08:02.019Z,96.20
2023-01-23T16:10:35.050Z,102.10
2023-01-23T16:13:07.026Z,123.30
2023-01-23T16:15:39.151Z,108.90
2023-01-23T16:18:09.589Z,121.20
2023-01-23T16:23:16.647Z,95.90
2023-01-23T16:25:46.848Z,112.30
2023-01-23T16:28:18.929Z,110.50
2023-01-23T16:30:51.335Z,92.30
2023-01-23T16:33:21.949Z,74.10
2023-01-23T16:35:52.475Z,87.80
2023-01-23T16:38:25.022Z,73.40
2023-01-23T16:40:56.252Z,100.50
2023-01-23T16:43:26.291Z,89.90
2023-01-23T16:45:57.185Z,130.10
2023-01-23T16:48:28.610Z,110.00
2023-01-23T16:51:03.172Z,90.50
2023-01-23T16:53:36.888Z,77.70
2023-01-23T16:56:13.129Z,75.80
2023-01-23T16:58:43.120Z,89.50
2023-01-23T17:01:19.982Z,108.30
2023-01-23T17:03:55.861Z,98.10
2023-01-23T17:06:25.648Z,68.40
2023-01-23T17:08:56.136Z,81.50
2023-01-23T17:14:01.126Z,92.70
2023-01-23T17:16:31.255Z,70.60
2023-01-23T17:19:06.864Z,80.60
2023-01-23T17:21:36.631Z,85.00
2023-01-23T17:24:09.704Z,69.90
2023-01-23T17:26:39.401Z,96.50
2023-01-23T17:29:09.515Z,110.40
2023-01-23T17:31:40.169Z,86.80
2023-01-23T17:34:20.323Z,86.40
2023-01-23T17:36:50.698Z,106.20
2023-01-23T17:39:20.677Z,74.00
2023-01-23T17:41:52.301Z,83.70
2023-01-23T17:44:21.979Z,78.00
2023-01-23T17:46:54.097Z,98.30
2023-01-23T17:49:33.364Z,78.90
2023-01-23T17:52:03.684Z,89.70
2023-01-23T17:54:33.414Z,75.90
2023-01-23T17:57:03.143Z,59.70
2023-01-23T17:59:32.973Z,70.90
2023-01-23T18:02:02.924Z,95.00
2023-01-23T18:04:32.787Z,106.50
2023-01-23T18:07:02.519Z,78.60
2023-01-23T18:09:33.817Z,85.00
2023-01-23T18:12:05.742Z,97.10
2023-01-23T18:14:45.382Z,94.20
2023-01-23T18:17:29.222Z,91.00
2023-01-23T18:20:00.795Z,85.40
2023-01-23T18:22:32.177Z,82.70
2023-01-23T18:25:03.796Z,72.90
2023-01-23T18:27:40.316Z,86.90
2023-01-23T18:30:33.481Z,82.40
2023-01-23T18:33:26.562Z,83.60
2023-01-23T18:36:18.781Z,93.50
2023-01-23T18:39:25.357Z,83.20
2023-01-23T18:42:12.958Z,76.90
2023-01-23T18:44:48.473Z,103.10
2023-01-23T18:47:19.506Z,81.60
2023-01-23T18:49:50.347Z,92.00
2023-01-23T18:52:29.376Z,64.00
2023-01-23T18:55:07.520Z,78.40
2023-01-23T18:58:01.598Z,77.20
2023-01-23T19:00:37.387Z,87.70
2023-01-23T19:03:14.849Z,83.50
2023-01-23T19:05:45.878Z,65.60
2023-01-23T19:08:27.653Z,73.40
2023-01-23T19:11:04.675Z,59.10
2023-01-23T19:13:44.257Z,71.30
2023-01-23T19:16:23.652Z,111.50
2023-01-23T19:19:14.640Z,60.40
2023-01-23T19:21:47.216Z,75.50
2023-01-23T19:24:20.089Z,65.20
2023-01-23T19:26:51.841Z,79.40
2023-01-23T19:29:23.439Z,77.10
2023-01-23T19:32:04.643Z,88.00
2023-01-23T19:34:35.791Z,96.90
2023-01-23T19:37:07.490Z,83.70
2023-01-23T19:39:37.475Z,87.00
2023-01-23T19:42:13.056Z,84.00
2023-01-23T19:44:44.149Z,59.30
2023-01-23T19:47:24.627Z,68.30
2023-01-23T19:49:56.186Z,81.60
2023-01-23T19:52:26.739Z,68.00
2023-01-23T19:54:56.713Z,51.30
2023-01-23T19:57:26.398Z,84.90
2023-01-23T19:59:56.102Z,75.40
2023-01-23T20:02:26.742Z,70.30
2023-01-23T20:04:57.460Z,77.60
2023-01-23T20:07:27.135Z,74.80
2023-01-23T20:09:56.837Z,78.70
2023-01-23T20:12:26.500Z,78.40
2023-01-23T20:14:57.978Z,87.30
2023-01-23T20:17:27.912Z,80.20
2023-01-23T20:19:57.576Z,69.00
2023-01-23T20:22:28.629Z,68.10
2023-01-23T20:24:58.425Z,76.00
2023-01-23T20:27:28.335Z,85.30
2023-01-23T20:29:58.032Z,68.60
2023-01-23T20:32:30.448Z,74.10
2023-01-23T20:35:00.698Z,64.80
2023-01-23T20:37:30.493Z,73.80
2023-01-23T20:40:00.701Z,80.40
2023-01-23T20:42:30.461Z,78.40
2023-01-23T20:45:00.103Z,78.40
2023-01-23T20:47:30.097Z,68.50
2023-01-23T20:50:01.817Z,71.30
2023-01-23T20:52:50.708Z,74.50
2023-01-23T20:55:22.101Z,81.50
2023-01-23T20:58:10.091Z,65.10
2023-01-23T21:00:39.687Z,57.70
2023-01-23T21:03:09.674Z,74.50
2023-01-23T21:05:39.400Z,75.50
2023-01-23T21:08:09.076Z,66.90
2023-01-23T21:10:38.680Z,67.80
2023-01-23T21:13:11.134Z,72.70
2023-01-23T21:15:40.958Z,66.70
2023-01-23T21:18:10.741Z,58.10
2023-01-23T21:20:40.417Z,80.00
2023-01-23T21:23:10.232Z,57.60
2023-01-23T21:25:39.971Z,66.40
2023-01-23T21:28:09.873Z,66.70
2023-01-23T21:30:40.954Z,71.20
2023-01-23T21:33:10.757Z,67.20
2023-01-23T21:35:40.466Z,51.80
2023-01-23T21:38:10.100Z,58.90
2023-01-23T21:40:39.738Z,60.60
2023-01-23T21:43:09.513Z,57.30
2023-01-23T21:45:39.245Z,62.60
2023-01-23T21:48:09.166Z,61.50
2023-01-23T21:50:38.773Z,66.80
2023-01-23T21:53:08.546Z,64.50
2023-01-23T21:55:38.276Z,73.10
2023-01-23T21:58:07.914Z,77.30
2023-01-23T22:00:55.449Z,72.20
2023-01-23T22:03:25.334Z,78.30
2023-01-23T22:05:58.827Z,79.00
2023-01-23T22:08:28.492Z,47.20
2023-01-23T22:10:58.174Z,71.90
2023-01-23T22:13:27.864Z,60.50
2023-01-23T22:15:59.760Z,55.70
2023-01-23T22:18:30.297Z,54.80
2023-01-23T22:26:01.428Z,60.20
2023-01-23T22:28:31.457Z,48.50
2023-01-23T22:31:07.373Z,42.60
2023-01-23T22:33:40.829Z,57.20
2023-01-23T22:36:14.859Z,66.20
2023-01-23T22:38:45.238Z,59.50
2023-01-23T22:41:15.364Z,52.60
2023-01-23T22:43:45.069Z,62.70
2023-01-23T22:46:18.514Z,55.90
2023-01-23T22:48:48.266Z,56.40
2023-01-23T22:51:21.411Z,49.10
2023-01-23T22:53:52.345Z,45.10
2023-01-23T22:56:22.650Z,53.30
2023-01-23T22:58:55.013Z,55.90
2023-01-23T23:01:26.552Z,56.70
2023-01-23T23:03:58.174Z,63.60
2023-01-23T23:06:28.365Z,53.90
2023-01-23T23:08:58.092Z,71.70
2023-01-23T23:11:29.265Z,60.10
2023-01-23T23:13:59.175Z,56.70
2023-01-23T23:16:31.767Z,66.20
2023-01-23T23:19:03.465Z,58.00
2023-01-23T23:21:36.260Z,58.00
2023-01-23T23:24:09.060Z,68.20
2023-01-23T23:26:38.823Z,65.30
2023-01-23T23:29:08.623Z,43.10
2023-01-23T23:31:38.353Z,56.20
2023-01-23T23:34:08.186Z,64.20
2023-01-23T23:36:37.981Z,57.50
2023-01-23T23:39:07.692Z,57.60
2023-01-23T23:41:37.473Z,58.10
2023-01-23T23:44:07.196Z,65.50
2023-01-23T23:46:36.917Z,67.20
2023-01-23T23:49:06.750Z,59.00
2023-01-23T23:51:36.381Z,70.20
2023-01-23T23:54:06.252Z,61.70
2023-01-23T23:56:36.113Z,64.00
2023-01-23T23:59:05.740Z,59.60
